createdAt,value
2019-03-24T00:03:43.653Z,88.64
2019-03-24T00:09:02.321Z,89.10
2019-03-24T00:14:20.878Z,89.22
2019-03-24T00:19:39.513Z,89.27
2019-03-24T00:24:58.075Z,89.58
2019-03-24T00:30:16.725Z,89.94
2019-03-24T00:35:35.341Z,90.69
2019-03-24T00:40:53.974Z,90.84
2019-03-24T00:46:12.886Z,91.18
2019-03-24T00:51:31.533Z,91.63
2019-03-24T00:56:50.105Z,91.81
2019-03-24T01:02:08.747Z,91.69
2019-03-24T01:07:27.369Z,92.37
2019-03-24T01:12:45.985Z,92.73
2019-03-24T01:18:04.599Z,93.15
2019-03-24T01:23:23.160Z,93.32
2019-03-24T01:28:41.721Z,93.33
2019-03-24T01:34:00.344Z,93.60
2019-03-24T01:39:19.061Z,93.84
2019-03-24T01:44:37.672Z,94.02
2019-03-24T01:49:56.315Z,93.98
2019-03-24T01:55:14.950Z,94.43
2019-03-24T02:00:35.431Z,94.55
2019-03-24T02:05:54.002Z,94.81
2019-03-24T02:11:12.641Z,94.74
2019-03-24T02:16:31.280Z,94.93
2019-03-24T02:21:49.840Z,94.99
2019-03-24T02:27:08.488Z,95.17
2019-03-24T02:32:27.131Z,96.04
2019-03-24T02:37:45.764Z,95.71
2019-03-24T02:43:04.641Z,96.00
2019-03-24T02:48:23.216Z,96.40
2019-03-24T02:53:41.839Z,95.91
2019-03-24T02:59:00.452Z,95.82
2019-03-24T03:04:19.126Z,95.71
2019-03-24T03:09:37.754Z,95.76
2019-03-24T03:14:56.401Z,95.80
2019-03-24T03:20:15.131Z,95.61
2019-03-24T03:25:33.677Z,95.54
2019-03-24T03:30:52.307Z,95.54
2019-03-24T03:36:10.928Z,95.64
2019-03-24T03:41:29.668Z,95.73
2019-03-24T03:46:52.864Z,96.00
2019-03-24T03:52:08.663Z,95.67
2019-03-24T03:57:27.316Z,95.33
2019-03-24T04:02:45.970Z,94.98
2019-03-24T04:08:04.991Z,94.32
2019-03-24T04:13:23.623Z,92.49
2019-03-24T04:18:42.206Z,91.51
2019-03-24T04:24:00.747Z,90.36
2019-03-24T04:29:19.331Z,88.72
2019-03-24T04:34:38.246Z,87.76
2019-03-24T04:39:56.794Z,88.26
2019-03-24T04:45:15.445Z,86.52
2019-03-24T04:50:34.010Z,87.11
2019-03-24T04:55:52.622Z,85.49
2019-03-24T05:01:11.146Z,85.21
2019-03-24T05:06:30.690Z,85.21
2019-03-24T05:11:49.250Z,85.42
2019-03-24T05:17:07.855Z,85.88
2019-03-24T05:22:26.427Z,86.10
2019-03-24T05:27:44.975Z,85.94
2019-03-24T05:33:03.610Z,85.04
2019-03-24T05:38:22.173Z,85.36
2019-03-24T05:43:40.798Z,85.20
2019-03-24T05:49:01.273Z,85.34
2019-03-24T05:54:19.990Z,85.19
2019-03-24T05:59:38.791Z,85.45
2019-03-24T06:04:57.358Z,84.99
2019-03-24T06:10:15.977Z,85.61
2019-03-24T06:15:34.592Z,85.03
2019-03-24T06:20:53.342Z,84.38
2019-03-24T06:26:11.910Z,84.55
2019-03-24T06:31:30.452Z,86.07
2019-03-24T06:36:49.019Z,86.07
2019-03-24T06:42:07.572Z,85.29
2019-03-24T06:47:26.130Z,84.91
2019-03-24T06:52:44.948Z,85.07
2019-03-24T06:58:03.514Z,84.75
2019-03-24T07:03:22.458Z,85.33
2019-03-24T07:08:41.036Z,85.47
2019-03-24T07:13:59.666Z,84.75
2019-03-24T07:19:18.167Z,83.90
2019-03-24T07:24:36.959Z,83.54
2019-03-24T07:29:55.450Z,83.28
2019-03-24T07:35:14.160Z,83.50
2019-03-24T07:40:32.738Z,82.29
2019-03-24T07:45:51.322Z,82.14
2019-03-24T07:51:10.211Z,81.48
2019-03-24T07:56:28.835Z,80.56
2019-03-24T08:01:47.410Z,80.44
2019-03-24T08:07:06.086Z,73.99
2019-03-24T08:12:24.653Z,71.16
2019-03-24T08:17:43.196Z,66.01
2019-03-24T08:23:01.672Z,55.97
2019-03-24T08:28:20.212Z,55.02
2019-03-24T08:33:38.823Z,56.66
2019-03-24T08:38:57.475Z,59.83
2019-03-24T08:44:16.108Z,66.50
2019-03-24T08:49:34.665Z,69.90
2019-03-24T08:54:53.346Z,68.28
2019-03-24T09:00:11.947Z,71.45
2019-03-24T09:05:30.792Z,72.01
2019-03-24T09:10:49.406Z,74.22
2019-03-24T09:16:08.094Z,74.45
2019-03-24T09:21:26.732Z,70.35
2019-03-24T09:26:45.336Z,69.44
2019-03-24T09:32:04.114Z,66.19
2019-03-24T09:37:22.751Z,67.90
2019-03-24T09:42:41.230Z,67.68
2019-03-24T09:48:00.455Z,70.27
2019-03-24T09:53:19.155Z,68.28
2019-03-24T09:58:37.760Z,66.34
2019-03-24T10:03:56.446Z,65.81
2019-03-24T10:09:15.104Z,67.03
2019-03-24T10:14:33.815Z,67.24
2019-03-24T10:19:52.290Z,65.44
2019-03-24T10:25:10.904Z,66.38
2019-03-24T10:30:29.454Z,67.22
2019-03-24T10:35:48.010Z,66.32
2019-03-24T10:41:06.618Z,66.92
2019-03-24T10:46:25.134Z,64.81
2019-03-24T10:51:43.695Z,62.22
2019-03-24T10:57:02.246Z,64.73
2019-03-24T11:02:20.885Z,60.72
2019-03-24T11:07:39.437Z,60.72
2019-03-24T11:12:58.412Z,60.87
2019-03-24T11:18:17.299Z,60.71
2019-03-24T11:23:35.858Z,56.10
2019-03-24T11:28:54.479Z,56.10
2019-03-24T11:34:12.963Z,54.79
2019-03-24T11:39:31.515Z,55.06
2019-03-24T11:44:50.059Z,53.24
2019-03-24T11:50:09.927Z,55.50
2019-03-24T11:55:28.569Z,55.69
2019-03-24T12:00:47.187Z,52.19
2019-03-24T12:06:13.970Z,53.65
2019-03-24T12:11:26.074Z,56.77
2019-03-24T12:16:44.696Z,58.51
2019-03-24T12:22:03.325Z,57.35
2019-03-24T12:27:21.807Z,54.89
2019-03-24T12:32:40.737Z,54.80
2019-03-24T12:37:59.358Z,55.82
2019-03-24T12:43:19.763Z,54.36
2019-03-24T12:48:38.120Z,50.28
2019-03-24T12:53:56.683Z,49.25
2019-03-24T12:59:15.164Z,50.40
2019-03-24T13:04:34.106Z,50.91
2019-03-24T13:09:52.767Z,49.51
2019-03-24T13:15:11.746Z,49.74
2019-03-24T13:20:38.183Z,48.74
2019-03-24T13:25:51.197Z,47.16
2019-03-24T13:31:09.907Z,47.24
2019-03-24T13:36:28.402Z,46.38
2019-03-24T13:41:47.016Z,43.03
2019-03-24T13:47:05.709Z,43.45
2019-03-24T13:52:25.050Z,44.32
2019-03-24T13:57:43.737Z,45.03
2019-03-24T14:03:02.473Z,44.25
2019-03-24T14:08:21.160Z,43.74
2019-03-24T14:13:39.767Z,45.30
2019-03-24T14:18:58.486Z,43.39
2019-03-24T14:24:20.161Z,44.97
2019-03-24T14:29:38.772Z,44.57
2019-03-24T14:34:57.380Z,45.29
2019-03-24T15:03:33.691Z,37.69
2019-03-24T15:55:46.685Z,43.61
2019-03-24T16:01:05.319Z,42.96
2019-03-24T16:06:23.957Z,43.14
2019-03-24T16:11:42.499Z,44.86
2019-03-24T16:17:01.421Z,44.93
2019-03-24T16:22:20.136Z,44.90
2019-03-24T16:27:38.779Z,45.96
2019-03-24T16:32:57.369Z,43.68
2019-03-24T16:38:15.916Z,49.87
2019-03-24T16:43:34.527Z,44.49
2019-03-24T16:48:53.133Z,44.49
2019-03-24T16:54:11.968Z,45.68
2019-03-24T16:59:30.796Z,46.52
2019-03-24T17:04:49.471Z,47.80
2019-03-24T17:10:08.403Z,50.37
2019-03-24T17:15:27.021Z,50.78
2019-03-24T17:20:45.511Z,51.61
2019-03-24T17:26:04.187Z,51.74
2019-03-24T17:31:23.894Z,51.66
2019-03-24T17:36:42.379Z,52.73
2019-03-24T17:42:01.273Z,54.41
2019-03-24T17:47:19.907Z,55.71
2019-03-24T17:52:38.734Z,53.96
2019-03-24T17:57:57.296Z,54.86
2019-03-24T18:03:16.043Z,56.30
2019-03-24T18:08:34.677Z,57.21
2019-03-24T18:13:53.233Z,59.06
2019-03-24T18:19:11.785Z,60.78
2019-03-24T18:24:30.277Z,61.71
2019-03-24T18:29:48.920Z,62.90
2019-03-24T18:35:08.741Z,63.31
2019-03-24T18:40:27.451Z,64.09
2019-03-24T18:45:47.870Z,64.21
2019-03-24T18:51:06.490Z,64.44
2019-03-24T18:56:25.144Z,62.50
2019-03-24T19:01:43.759Z,60.94
2019-03-24T19:07:03.854Z,62.41
2019-03-24T19:12:22.471Z,63.72
2019-03-24T19:17:41.279Z,62.61
2019-03-24T19:22:59.929Z,60.19
2019-03-24T19:28:18.576Z,59.58
2019-03-24T19:33:37.302Z,58.46
2019-03-24T19:38:55.942Z,59.87
2019-03-24T19:44:15.455Z,60.62
2019-03-24T19:49:34.000Z,61.03
2019-03-24T19:54:52.577Z,61.74
2019-03-24T20:00:12.179Z,63.52
2019-03-24T20:05:30.837Z,63.99
2019-03-24T20:10:54.372Z,67.35
2019-03-24T20:16:13.256Z,67.35
2019-03-24T20:21:33.543Z,68.06
2019-03-24T20:26:52.283Z,68.76
2019-03-24T20:32:12.685Z,68.15
2019-03-24T20:37:31.418Z,68.47
2019-03-24T20:42:50.247Z,69.26
2019-03-24T20:48:08.885Z,69.38
2019-03-24T20:53:27.514Z,68.50
2019-03-24T20:58:46.140Z,69.74
2019-03-24T21:04:04.812Z,70.26
2019-03-24T21:09:23.851Z,70.48
2019-03-24T21:14:42.534Z,70.60
2019-03-24T21:20:01.266Z,71.61
2019-03-24T21:25:19.889Z,71.74
2019-03-24T21:30:40.009Z,71.11
2019-03-24T21:35:58.537Z,71.31
2019-03-24T21:41:18.778Z,71.73
2019-03-24T21:46:37.330Z,72.22
2019-03-24T21:51:55.945Z,71.85
2019-03-24T21:57:14.560Z,72.09
2019-03-24T22:02:33.119Z,72.54
2019-03-24T22:07:51.746Z,73.85
2019-03-24T22:13:10.371Z,74.71
2019-03-24T22:18:28.908Z,75.64
2019-03-24T22:23:52.171Z,76.29
2019-03-24T22:29:07.670Z,76.38
2019-03-24T22:34:26.236Z,76.18
2019-03-24T22:39:44.833Z,76.19
2019-03-24T22:45:03.554Z,76.38
2019-03-24T22:50:22.119Z,76.48
2019-03-24T22:55:40.747Z,76.41
2019-03-24T23:00:59.437Z,76.42
2019-03-24T23:06:18.056Z,75.71
2019-03-24T23:11:36.600Z,75.74
2019-03-24T23:16:55.157Z,75.23
2019-03-24T23:22:13.648Z,75.14
2019-03-24T23:27:32.262Z,75.16
2019-03-24T23:32:50.904Z,75.88
2019-03-24T23:38:09.447Z,75.84
2019-03-24T23:43:28.364Z,77.07
2019-03-24T23:48:46.844Z,77.90
2019-03-24T23:54:05.466Z,78.69
2019-03-24T23:59:24.093Z,79.70
